createdAt,value
2022-08-11T00:00:43.263Z,21.31
2022-08-11T00:02:51.205Z,20.98
2022-08-11T00:04:56.505Z,21.02
2022-08-11T00:07:04.495Z,21.21
2022-08-11T00:09:15.740Z,21.00
2022-08-11T00:11:20.174Z,20.81
2022-08-11T00:13:23.687Z,21.11
2022-08-11T00:15:37.426Z,21.05
2022-08-11T00:17:40.917Z,21.07
2022-08-11T00:20:14.733Z,21.10
2022-08-11T00:22:20.834Z,20.94
2022-08-11T00:24:24.877Z,20.80
2022-08-11T00:26:29.007Z,20.96
2022-08-11T00:28:34.836Z,20.91
2022-08-11T00:30:41.004Z,20.69
2022-08-11T00:32:55.354Z,20.47
2022-08-11T00:35:55.834Z,20.25
2022-08-11T00:37:24.897Z,19.93
2022-08-11T00:39:29.331Z,19.61
2022-08-11T00:41:40.896Z,19.77
2022-08-11T00:44:11.137Z,19.99
2022-08-11T00:46:25.173Z,19.83
2022-08-11T00:48:38.650Z,19.61
2022-08-11T00:51:21.066Z,19.51
2022-08-11T00:53:54.030Z,19.53
2022-08-11T00:56:39.306Z,19.47
2022-08-11T00:58:59.461Z,19.40
2022-08-11T01:01:16.917Z,19.29
2022-08-11T01:04:00.595Z,19.10
2022-08-11T01:06:49.587Z,18.96
2022-08-11T01:09:38.367Z,19.01
2022-08-11T01:12:11.262Z,18.94
2022-08-11T01:14:38.558Z,18.88
2022-08-11T01:17:31.625Z,18.81
2022-08-11T01:20:45.970Z,18.76
2022-08-11T01:22:51.809Z,18.72
2022-08-11T01:25:17.588Z,18.66
2022-08-11T01:28:08.260Z,18.60
2022-08-11T01:30:54.466Z,18.47
2022-08-11T01:33:21.604Z,18.52
2022-08-11T01:35:53.693Z,18.55
2022-08-11T01:38:40.042Z,18.48
2022-08-11T01:41:20.719Z,18.42
2022-08-11T01:44:31.604Z,18.53
2022-08-11T01:47:02.847Z,18.42
2022-08-11T01:50:05.974Z,18.50
2022-08-11T01:52:30.950Z,18.14
2022-08-11T01:54:59.496Z,18.33
2022-08-11T01:57:37.982Z,18.22
2022-08-11T01:59:51.217Z,18.15
2022-08-11T02:02:42.293Z,18.02
2022-08-11T02:05:24.026Z,18.14
2022-08-11T02:07:58.857Z,18.09
2022-08-11T02:11:02.957Z,17.99
2022-08-11T02:13:11.757Z,17.97
2022-08-11T02:15:43.820Z,17.59
2022-08-11T02:18:10.770Z,17.78
2022-08-11T02:20:45.406Z,17.57
2022-08-11T02:24:04.976Z,17.62
2022-08-11T02:26:22.674Z,17.71
2022-08-11T02:28:54.951Z,17.71
2022-08-11T02:32:24.175Z,17.68
2022-08-11T02:34:40.526Z,17.65
2022-08-11T02:36:58.621Z,17.66
2022-08-11T02:39:10.082Z,17.46
2022-08-11T02:41:55.575Z,17.56
2022-08-11T02:44:21.160Z,17.50
2022-08-11T02:46:50.834Z,17.40
2022-08-11T02:49:26.184Z,17.35
2022-08-11T02:52:09.882Z,17.44
2022-08-11T02:54:23.831Z,17.39
2022-08-11T02:56:57.769Z,17.38
2022-08-11T02:59:50.323Z,17.36
2022-08-11T03:02:25.308Z,17.33
2022-08-11T03:04:51.945Z,17.25
2022-08-11T03:07:29.038Z,17.17
2022-08-11T03:09:38.258Z,17.08
2022-08-11T03:12:15.142Z,16.87
2022-08-11T03:14:48.473Z,16.69
2022-08-11T03:17:22.595Z,16.87
2022-08-11T03:19:46.649Z,16.57
2022-08-11T03:22:03.536Z,16.70
2022-08-11T03:24:22.546Z,16.57
2022-08-11T03:26:48.661Z,16.61
2022-08-11T03:29:25.107Z,16.64
2022-08-11T03:31:35.952Z,16.25
2022-08-11T03:34:12.795Z,16.44
2022-08-11T03:37:16.426Z,16.60
2022-08-11T03:39:34.738Z,16.38
2022-08-11T03:42:04.172Z,16.19
2022-08-11T03:44:48.197Z,16.53
2022-08-11T03:47:03.580Z,16.36
2022-08-11T03:49:28.306Z,16.50
2022-08-11T03:51:51.516Z,16.38
2022-08-11T03:54:16.341Z,16.51
2022-08-11T03:57:10.987Z,16.46
2022-08-11T03:59:45.333Z,16.42
2022-08-11T04:02:14.531Z,16.40
2022-08-11T04:04:36.927Z,16.41
2022-08-11T04:07:26.561Z,16.32
2022-08-11T04:10:06.904Z,16.46
2022-08-11T04:13:17.254Z,16.42
2022-08-11T04:16:00.843Z,16.41
2022-08-11T04:19:02.162Z,16.70
2022-08-11T04:21:35.406Z,16.69
2022-08-11T04:24:35.657Z,16.69
2022-08-11T04:27:20.503Z,16.68
2022-08-11T04:30:00.521Z,16.67
2022-08-11T04:32:26.635Z,16.65
2022-08-11T04:35:02.223Z,16.35
2022-08-11T04:37:57.853Z,16.65
2022-08-11T04:40:31.117Z,16.67
2022-08-11T04:43:23.596Z,16.72
2022-08-11T04:45:46.004Z,16.76
2022-08-11T04:49:02.576Z,16.78
2022-08-11T04:51:45.047Z,16.85
2022-08-11T04:54:34.178Z,16.89
2022-08-11T04:56:57.519Z,16.75
2022-08-11T04:59:48.990Z,17.03
2022-08-11T05:02:27.047Z,17.13
2022-08-11T05:05:28.402Z,17.22
2022-08-11T05:08:09.829Z,17.23
2022-08-11T05:10:34.198Z,17.34
2022-08-11T05:12:54.102Z,17.39
2022-08-11T05:15:25.654Z,17.58
2022-08-11T05:18:18.561Z,17.61
2022-08-11T05:20:42.654Z,17.13
2022-08-11T05:23:11.626Z,17.80
2022-08-11T05:26:43.422Z,18.05
2022-08-11T05:28:29.884Z,18.31
2022-08-11T05:30:51.484Z,17.93
2022-08-11T05:33:30.924Z,18.52
2022-08-11T05:36:01.746Z,18.70
2022-08-11T05:38:35.655Z,18.86
2022-08-11T05:41:00.265Z,18.68
2022-08-11T05:43:31.194Z,19.08
2022-08-11T05:46:02.355Z,19.37
2022-08-11T05:48:25.885Z,19.38
2022-08-11T05:50:47.747Z,19.50
2022-08-11T05:53:13.530Z,19.19
2022-08-11T05:56:01.940Z,19.96
2022-08-11T05:58:08.118Z,20.20
2022-08-11T06:00:12.157Z,20.29
2022-08-11T06:02:15.601Z,20.22
2022-08-11T06:04:23.038Z,20.21
2022-08-11T06:06:27.252Z,20.73
2022-08-11T06:08:37.111Z,20.76
2022-08-11T06:10:45.465Z,20.88
2022-08-11T06:12:55.934Z,21.37
2022-08-11T06:15:10.996Z,21.36
2022-08-11T06:17:13.965Z,20.75
2022-08-11T06:19:23.128Z,21.37
2022-08-11T06:21:26.147Z,21.47
2022-08-11T06:23:33.618Z,21.54
2022-08-11T06:25:39.433Z,21.51
2022-08-11T06:27:45.730Z,22.03
2022-08-11T06:29:55.344Z,21.29
2022-08-11T06:32:03.194Z,22.26
2022-08-11T06:34:08.561Z,22.40
2022-08-11T06:36:27.439Z,22.49
2022-08-11T06:39:22.183Z,22.66
2022-08-11T06:41:57.839Z,22.69
2022-08-11T06:44:19.026Z,22.64
2022-08-11T06:46:38.160Z,23.08
2022-08-11T06:48:41.495Z,23.00
2022-08-11T06:51:12.702Z,22.13
2022-08-11T06:53:19.795Z,23.39
2022-08-11T06:55:56.722Z,23.03
2022-08-11T06:58:22.460Z,23.72
2022-08-11T07:00:29.363Z,23.79
2022-08-11T07:02:43.828Z,24.01
2022-08-11T07:05:45.783Z,24.04
2022-08-11T07:08:43.639Z,24.42
2022-08-11T07:11:37.173Z,24.55
2022-08-11T07:14:00.184Z,24.73
2022-08-11T07:16:12.138Z,24.68
2022-08-11T07:18:56.386Z,25.16
2022-08-11T07:22:00.457Z,25.16
2022-08-11T07:24:16.315Z,25.51
2022-08-11T07:26:42.914Z,25.61
2022-08-11T07:28:55.428Z,25.86
2022-08-11T07:31:05.152Z,25.98
2022-08-11T07:33:09.457Z,25.81
2022-08-11T07:35:17.465Z,26.26
2022-08-11T07:37:23.266Z,26.31
2022-08-11T07:39:33.403Z,26.49
2022-08-11T07:41:36.281Z,26.50
2022-08-11T07:43:41.230Z,26.61
2022-08-11T07:46:04.749Z,26.79
2022-08-11T07:48:28.744Z,26.66
2022-08-11T07:50:55.543Z,26.98
2022-08-11T07:53:00.108Z,27.12
2022-08-11T07:55:12.715Z,27.26
2022-08-11T07:58:13.756Z,27.27
2022-08-11T08:00:16.177Z,27.44
2022-08-11T08:02:38.659Z,27.60
2022-08-11T08:05:00.656Z,27.24
2022-08-11T08:07:24.166Z,27.84
2022-08-11T08:09:46.517Z,27.54
2022-08-11T08:12:08.686Z,27.60
2022-08-11T08:14:31.216Z,27.94
2022-08-11T08:16:53.813Z,28.16
2022-08-11T08:18:56.602Z,28.05
2022-08-11T08:21:12.175Z,28.29
2022-08-11T08:23:15.571Z,28.54
2022-08-11T08:25:18.744Z,28.59
2022-08-11T08:27:22.337Z,28.85
2022-08-11T08:29:50.964Z,28.57
2022-08-11T08:31:55.023Z,29.02
2022-08-11T08:33:57.818Z,29.15
2022-08-11T08:36:11.949Z,29.47
2022-08-11T08:38:15.397Z,29.70
2022-08-11T08:40:18.808Z,29.58
2022-08-11T08:42:33.306Z,30.04
2022-08-11T08:44:44.943Z,30.55
2022-08-11T08:46:55.586Z,30.67
2022-08-11T08:49:03.020Z,30.75
2022-08-11T08:51:58.690Z,30.97
2022-08-11T08:54:02.482Z,30.81
2022-08-11T08:56:07.888Z,30.75
2022-08-11T08:58:11.058Z,30.33
2022-08-11T09:00:20.788Z,29.80
2022-08-11T09:02:34.348Z,30.35
2022-08-11T09:04:48.064Z,30.24
2022-08-11T09:06:52.486Z,30.09
2022-08-11T09:08:56.277Z,29.96
2022-08-11T09:11:19.035Z,29.41
2022-08-11T09:13:21.738Z,29.87
2022-08-11T09:15:26.148Z,29.89
2022-08-11T09:17:45.725Z,29.84
2022-08-11T09:19:58.709Z,29.84
2022-08-11T09:22:19.770Z,29.78
2022-08-11T09:24:42.267Z,29.87
2022-08-11T09:27:01.099Z,29.76
2022-08-11T09:29:04.857Z,30.14
2022-08-11T09:31:07.897Z,30.06
2022-08-11T09:33:14.537Z,30.29
2022-08-11T09:35:18.097Z,30.44
2022-08-11T09:37:54.160Z,30.47
2022-08-11T09:40:18.279Z,30.44
2022-08-11T09:42:24.007Z,30.43
2022-08-11T09:44:45.996Z,30.15
2022-08-11T09:46:52.621Z,30.28
2022-08-11T09:49:02.484Z,30.24
2022-08-11T09:51:07.579Z,30.16
2022-08-11T09:53:36.198Z,29.78
2022-08-11T09:55:35.423Z,30.27
2022-08-11T09:58:04.427Z,30.44
2022-08-11T10:00:14.370Z,30.06
2022-08-11T10:02:18.558Z,30.35
2022-08-11T10:04:34.947Z,30.29
2022-08-11T10:06:58.341Z,30.20
2022-08-11T10:09:03.169Z,30.00
2022-08-11T10:11:10.361Z,29.80
2022-08-11T10:14:30.158Z,30.11
2022-08-11T10:16:15.447Z,29.81
2022-08-11T10:18:51.556Z,30.03
2022-08-11T10:21:00.867Z,30.13
2022-08-11T10:23:23.354Z,30.05
2022-08-11T10:25:44.893Z,30.29
2022-08-11T10:28:28.266Z,30.39
2022-08-11T10:30:50.195Z,30.11
2022-08-11T10:33:11.421Z,30.34
2022-08-11T10:35:26.187Z,30.24
2022-08-11T10:38:06.352Z,30.43
2022-08-11T10:39:57.839Z,30.19
2022-08-11T10:42:35.012Z,30.32
2022-08-11T10:44:53.049Z,30.21
2022-08-11T10:47:14.509Z,29.96
2022-08-11T10:49:19.037Z,30.10
2022-08-11T10:51:50.082Z,30.16
2022-08-11T10:54:12.430Z,30.14
2022-08-11T10:56:35.862Z,30.24
2022-08-11T10:58:49.608Z,29.91
2022-08-11T11:00:56.976Z,29.82
2022-08-11T11:03:22.419Z,29.96
2022-08-11T11:05:30.795Z,29.85
2022-08-11T11:07:44.448Z,29.76
2022-08-11T11:09:49.136Z,29.95
2022-08-11T11:12:14.358Z,29.86
2022-08-11T11:14:46.738Z,29.72
2022-08-11T11:17:11.252Z,29.90
2022-08-11T11:19:19.241Z,29.85
2022-08-11T11:21:22.267Z,29.85
2022-08-11T11:23:39.736Z,30.00
2022-08-11T11:26:27.510Z,30.11
2022-08-11T11:29:02.107Z,30.14
2022-08-11T11:31:33.515Z,30.23
2022-08-11T11:34:33.234Z,30.11
2022-08-11T11:36:48.395Z,30.03
2022-08-11T11:38:51.439Z,30.20
2022-08-11T11:41:13.199Z,29.52
2022-08-11T11:43:15.990Z,29.98
2022-08-11T11:45:24.370Z,30.28
2022-08-11T11:47:27.426Z,30.27
2022-08-11T11:49:32.561Z,30.35
2022-08-11T11:51:37.238Z,30.42
2022-08-11T11:53:44.171Z,30.48
2022-08-11T11:55:47.434Z,30.30
2022-08-11T11:58:11.007Z,30.44
2022-08-11T12:00:43.298Z,30.48
2022-08-11T12:02:46.508Z,30.59
2022-08-11T12:04:49.146Z,30.06
2022-08-11T12:07:12.234Z,30.08
2022-08-11T12:09:18.499Z,30.60
2022-08-11T12:11:43.702Z,30.55
2022-08-11T12:13:50.504Z,30.75
2022-08-11T12:16:05.424Z,30.55
2022-08-11T12:18:17.180Z,30.32
2022-08-11T12:20:32.032Z,30.41
2022-08-11T12:23:06.571Z,30.18
2022-08-11T12:25:28.091Z,30.23
2022-08-11T12:27:31.723Z,30.36
2022-08-11T12:29:35.015Z,30.52
2022-08-11T12:31:40.539Z,30.66
2022-08-11T12:33:43.992Z,30.86
2022-08-11T12:36:00.793Z,30.89
2022-08-11T12:38:10.698Z,30.63
2022-08-11T12:40:42.495Z,30.82
2022-08-11T12:43:22.247Z,30.75
2022-08-11T12:45:28.384Z,30.69
2022-08-11T12:48:57.497Z,30.49
2022-08-11T12:50:34.319Z,30.59
2022-08-11T12:52:50.259Z,30.58
2022-08-11T12:55:13.766Z,30.73
2022-08-11T12:57:57.840Z,30.62
2022-08-11T13:00:20.022Z,30.66
2022-08-11T13:02:44.457Z,30.55
2022-08-11T13:04:59.393Z,30.62
2022-08-11T13:07:03.216Z,30.25
2022-08-11T13:09:07.981Z,30.44
2022-08-11T13:11:56.041Z,30.53
2022-08-11T13:13:57.951Z,30.57
2022-08-11T13:16:00.997Z,30.43
2022-08-11T13:18:08.082Z,30.53
2022-08-11T13:20:15.285Z,30.47
2022-08-11T13:22:23.059Z,30.42
2022-08-11T13:24:25.833Z,29.45
2022-08-11T13:26:43.612Z,30.42
2022-08-11T13:28:52.070Z,30.28
2022-08-11T13:31:14.775Z,30.33
2022-08-11T13:33:18.573Z,30.36
2022-08-11T13:35:23.751Z,30.29
2022-08-11T13:38:18.305Z,30.32
2022-08-11T13:39:49.337Z,30.21
2022-08-11T13:41:55.255Z,30.15
2022-08-11T13:43:58.698Z,30.37
2022-08-11T13:46:22.598Z,30.37
2022-08-11T13:48:25.971Z,29.94
2022-08-11T13:50:48.688Z,30.34
2022-08-11T13:52:53.304Z,30.21
2022-08-11T13:54:57.497Z,30.19
2022-08-11T13:57:09.134Z,30.25
2022-08-11T13:59:14.751Z,30.28
2022-08-11T14:02:03.190Z,30.28
2022-08-11T14:04:31.275Z,30.33
2022-08-11T14:06:07.921Z,30.08
2022-08-11T14:08:38.055Z,30.11
2022-08-11T14:10:41.214Z,30.23
2022-08-11T14:13:14.232Z,30.18
2022-08-11T14:15:25.335Z,30.43
2022-08-11T14:17:47.309Z,30.14
2022-08-11T14:19:53.679Z,30.26
2022-08-11T14:22:10.043Z,30.26
2022-08-11T14:24:13.384Z,30.04
2022-08-11T14:26:24.001Z,30.04
2022-08-11T14:28:31.714Z,30.27
2022-08-11T14:31:00.476Z,30.12
2022-08-11T14:33:14.257Z,30.24
2022-08-11T14:35:21.409Z,30.41
2022-08-11T14:37:27.905Z,30.23
2022-08-11T14:39:36.154Z,30.02
2022-08-11T14:42:10.008Z,30.44
2022-08-11T14:44:35.060Z,30.47
2022-08-11T14:46:58.484Z,30.47
2022-08-11T14:49:01.502Z,30.18
2022-08-11T14:51:05.582Z,30.23
2022-08-11T14:53:16.077Z,30.38
2022-08-11T14:55:44.700Z,30.30
2022-08-11T14:57:55.615Z,30.39
2022-08-11T15:00:02.588Z,30.38
2022-08-11T15:02:24.317Z,29.83
2022-08-11T15:04:34.954Z,30.17
2022-08-11T15:06:39.815Z,30.16
2022-08-11T15:08:54.868Z,30.18
2022-08-11T15:10:57.497Z,30.31
2022-08-11T15:13:01.592Z,30.21
2022-08-11T15:15:25.944Z,30.13
2022-08-11T15:17:42.713Z,30.38
2022-08-11T15:20:05.098Z,30.31
2022-08-11T15:22:28.286Z,30.25
2022-08-11T15:24:31.468Z,30.27
2022-08-11T15:26:58.954Z,30.34
2022-08-11T15:29:23.454Z,30.21
2022-08-11T15:31:49.524Z,30.28
2022-08-11T15:34:18.077Z,30.28
2022-08-11T15:36:40.275Z,29.92
2022-08-11T15:38:55.509Z,30.24
2022-08-11T15:41:19.107Z,30.11
2022-08-11T15:43:46.998Z,30.28
2022-08-11T15:45:54.232Z,30.30
2022-08-11T15:48:07.589Z,30.27
2022-08-11T15:50:19.922Z,29.91
2022-08-11T15:52:25.961Z,30.25
2022-08-11T15:54:32.509Z,30.06
2022-08-11T15:56:39.155Z,29.77
2022-08-11T15:59:40.989Z,29.80
2022-08-11T16:01:49.020Z,29.85
2022-08-11T16:04:13.355Z,29.81
2022-08-11T16:06:16.779Z,29.72
2022-08-11T16:08:32.708Z,29.27
2022-08-11T16:10:37.326Z,29.79
2022-08-11T16:13:20.412Z,29.25
2022-08-11T16:15:42.052Z,29.91
2022-08-11T16:17:50.346Z,29.99
2022-08-11T16:19:55.966Z,29.89
2022-08-11T16:21:58.548Z,29.87
2022-08-11T16:24:06.402Z,30.08
2022-08-11T16:27:08.579Z,30.10
2022-08-11T16:28:35.293Z,30.10
2022-08-11T16:30:43.907Z,30.05
2022-08-11T16:32:53.655Z,30.04
2022-08-11T16:35:28.714Z,29.97
2022-08-11T16:37:54.545Z,30.02
2022-08-11T16:39:57.400Z,29.90
2022-08-11T16:43:04.619Z,29.76
2022-08-11T16:45:00.296Z,29.82
2022-08-11T16:47:06.171Z,29.94
2022-08-11T16:49:18.525Z,29.79
2022-08-11T16:51:22.864Z,29.73
2022-08-11T16:53:50.609Z,29.79
2022-08-11T16:55:52.743Z,29.68
2022-08-11T16:58:14.931Z,29.78
2022-08-11T17:00:18.288Z,29.52
2022-08-11T17:02:43.765Z,29.65
2022-08-11T17:05:11.831Z,29.69
2022-08-11T17:07:41.987Z,29.37
2022-08-11T17:10:39.051Z,29.53
2022-08-11T17:12:51.058Z,29.54
2022-08-11T17:14:58.860Z,29.47
2022-08-11T17:17:04.003Z,29.43
2022-08-11T17:19:17.252Z,29.42
2022-08-11T17:21:30.002Z,29.38
2022-08-11T17:23:48.064Z,28.91
2022-08-11T17:25:59.322Z,29.03
2022-08-11T17:28:08.165Z,28.97
2022-08-11T17:30:11.968Z,28.94
2022-08-11T17:32:56.070Z,28.89
2022-08-11T17:35:24.872Z,28.84
2022-08-11T17:37:29.605Z,28.75
2022-08-11T17:39:32.800Z,28.71
2022-08-11T17:41:54.839Z,28.63
2022-08-11T17:44:18.121Z,28.53
2022-08-11T17:46:40.573Z,28.48
2022-08-11T17:48:48.231Z,28.39
2022-08-11T17:50:56.022Z,28.16
2022-08-11T17:53:18.866Z,28.26
2022-08-11T17:55:52.120Z,28.22
2022-08-11T17:58:15.838Z,28.10
2022-08-11T18:00:18.700Z,28.07
2022-08-11T18:02:49.062Z,27.95
2022-08-11T18:04:54.462Z,27.72
2022-08-11T18:06:57.462Z,27.59
2022-08-11T18:09:20.024Z,27.71
2022-08-11T18:12:06.454Z,27.26
2022-08-11T18:14:26.806Z,27.27
2022-08-11T18:16:48.618Z,27.58
2022-08-11T18:19:09.741Z,27.38
2022-08-11T18:21:34.969Z,27.16
2022-08-11T18:23:56.056Z,27.18
2022-08-11T18:26:21.130Z,26.92
2022-08-11T18:28:52.421Z,26.80
2022-08-11T18:31:18.563Z,26.95
2022-08-11T18:34:05.865Z,26.95
2022-08-11T18:36:30.523Z,26.92
2022-08-11T18:38:51.607Z,26.62
2022-08-11T18:41:13.528Z,26.78
2022-08-11T18:43:40.179Z,26.85
2022-08-11T18:46:06.710Z,26.75
2022-08-11T18:48:35.762Z,26.67
2022-08-11T18:51:00.663Z,26.01
2022-08-11T18:53:45.033Z,26.54
2022-08-11T18:56:07.108Z,26.25
2022-08-11T18:58:30.548Z,26.36
2022-08-11T19:00:55.254Z,26.06
2022-08-11T19:03:19.063Z,26.18
2022-08-11T19:06:32.350Z,26.17
2022-08-11T19:08:23.439Z,26.08
2022-08-11T19:10:45.104Z,25.86
2022-08-11T19:13:07.794Z,25.81
2022-08-11T19:15:30.001Z,25.85
2022-08-11T19:17:54.721Z,25.43
2022-08-11T19:20:17.239Z,25.80
2022-08-11T19:22:40.225Z,25.77
2022-08-11T19:25:03.427Z,25.64
2022-08-11T19:27:25.203Z,25.58
2022-08-11T19:30:04.960Z,25.70
2022-08-11T19:32:31.070Z,25.27
2022-08-11T19:34:52.899Z,25.47
2022-08-11T19:37:14.828Z,25.50
2022-08-11T19:39:38.870Z,25.48
2022-08-11T19:42:01.734Z,25.40
2022-08-11T19:44:23.304Z,25.39
2022-08-11T19:46:45.590Z,24.55
2022-08-11T19:49:12.639Z,25.18
2022-08-11T19:51:34.483Z,25.07
2022-08-11T19:53:57.428Z,24.90
2022-08-11T19:56:22.214Z,24.77
2022-08-11T19:58:43.958Z,24.72
2022-08-11T20:01:05.446Z,24.88
2022-08-11T20:03:30.473Z,24.55
2022-08-11T20:05:59.757Z,24.50
2022-08-11T20:08:21.704Z,23.98
2022-08-11T20:10:44.560Z,24.13
2022-08-11T20:13:06.464Z,24.41
2022-08-11T20:15:29.277Z,23.78
2022-08-11T20:17:57.002Z,24.47
2022-08-11T20:20:23.893Z,24.35
2022-08-11T20:22:48.633Z,23.76
2022-08-11T20:25:10.607Z,24.39
2022-08-11T20:27:32.150Z,24.07
2022-08-11T20:29:55.612Z,24.23
2022-08-11T20:32:18.122Z,23.96
2022-08-11T20:34:39.632Z,23.71
2022-08-11T20:37:01.659Z,24.03
2022-08-11T20:39:24.460Z,23.94
2022-08-11T20:41:57.744Z,24.13
2022-08-11T20:44:22.795Z,23.67
2022-08-11T20:46:44.723Z,23.36
2022-08-11T20:49:09.966Z,23.93
2022-08-11T20:51:33.815Z,23.74
2022-08-11T20:54:05.737Z,23.16
2022-08-11T20:56:29.096Z,23.59
2022-08-11T21:01:38.377Z,23.63
2022-08-11T21:04:00.731Z,23.44
2022-08-11T21:06:26.307Z,23.48
2022-08-11T21:08:56.720Z,22.99
2022-08-11T21:11:27.935Z,23.65
2022-08-11T21:13:55.991Z,23.03
2022-08-11T21:16:25.214Z,23.55
2022-08-11T21:18:49.982Z,23.52
2022-08-11T21:21:16.493Z,22.85
2022-08-11T21:23:38.284Z,23.55
2022-08-11T21:26:08.072Z,23.66
2022-08-11T21:28:30.866Z,23.68
2022-08-11T21:30:55.749Z,23.56
2022-08-11T21:33:21.410Z,23.33
2022-08-11T21:35:45.015Z,23.31
2022-08-11T21:38:09.247Z,22.59
2022-08-11T21:40:33.631Z,22.75
2022-08-11T21:43:01.185Z,22.74
2022-08-11T21:45:25.631Z,22.69
2022-08-11T21:47:49.749Z,22.56
2022-08-11T21:50:22.918Z,22.17
2022-08-11T21:52:45.017Z,22.20
2022-08-11T21:55:07.697Z,21.98
2022-08-11T21:57:32.831Z,21.99
2022-08-11T22:00:14.407Z,22.01
2022-08-11T22:02:37.693Z,21.94
2022-08-11T22:05:00.462Z,21.63
2022-08-11T22:07:21.749Z,21.57
2022-08-11T22:09:43.323Z,21.57
2022-08-11T22:12:34.035Z,21.52
2022-08-11T22:14:46.375Z,21.00
2022-08-11T22:17:08.109Z,20.87
2022-08-11T22:19:30.620Z,20.71
2022-08-11T22:22:03.295Z,21.22
2022-08-11T22:24:30.062Z,21.10
2022-08-11T22:26:53.913Z,20.95
2022-08-11T22:29:14.987Z,20.89
2022-08-11T22:31:36.690Z,20.89
2022-08-11T22:34:02.183Z,20.89
2022-08-11T22:36:24.076Z,20.65
2022-08-11T22:38:46.119Z,20.81
2022-08-11T22:41:07.439Z,20.69
2022-08-11T22:43:28.784Z,20.89
2022-08-11T22:45:50.135Z,20.94
2022-08-11T22:48:11.991Z,21.17
2022-08-11T22:50:33.782Z,21.14
2022-08-11T22:52:55.425Z,21.10
2022-08-11T22:55:17.945Z,21.10
2022-08-11T22:57:40.257Z,21.21
2022-08-11T23:00:22.659Z,21.17
2022-08-11T23:02:52.355Z,21.19
2022-08-11T23:05:13.875Z,21.22
2022-08-11T23:07:49.764Z,21.09
2022-08-11T23:10:13.598Z,20.82
2022-08-11T23:12:40.084Z,20.93
2022-08-11T23:15:02.294Z,20.84
2022-08-11T23:17:23.942Z,20.56
2022-08-11T23:20:07.835Z,20.51
2022-08-11T23:22:37.197Z,20.23
2022-08-11T23:25:08.744Z,20.34
2022-08-11T23:27:39.423Z,20.13
2022-08-11T23:30:05.095Z,19.82
2022-08-11T23:32:26.361Z,20.04
2022-08-11T23:35:04.775Z,20.06
2022-08-11T23:37:40.493Z,20.06
2022-08-11T23:40:01.498Z,19.91
2022-08-11T23:42:24.007Z,20.19
2022-08-11T23:44:45.607Z,20.08
2022-08-11T23:47:11.586Z,20.33
2022-08-11T23:49:33.337Z,20.47
2022-08-11T23:51:58.022Z,20.25
2022-08-11T23:54:19.910Z,19.97
2022-08-11T23:56:41.748Z,19.92
2022-08-11T23:59:03.910Z,19.94
